createdAt,value
2022-12-25T00:00:28.340Z,0
2022-12-25T00:01:24.103Z,0
2022-12-25T00:02:24.201Z,0
2022-12-25T00:03:24.972Z,0
2022-12-25T00:04:24.219Z,0
2022-12-25T00:05:24.180Z,0
2022-12-25T00:06:24.505Z,0
2022-12-25T00:07:24.762Z,0
2022-12-25T00:08:24.733Z,0
2022-12-25T00:09:24.684Z,0
2022-12-25T00:10:24.143Z,0
2022-12-25T00:11:24.742Z,0
2022-12-25T00:12:24.385Z,0
2022-12-25T00:13:24.380Z,0
2022-12-25T00:14:24.606Z,0
2022-12-25T00:15:24.607Z,0
2022-12-25T00:16:24.766Z,0
2022-12-25T00:17:24.549Z,0
2022-12-25T00:18:23.755Z,0
2022-12-25T00:19:24.600Z,0
2022-12-25T00:20:24.292Z,0
2022-12-25T00:21:24.491Z,0
2022-12-25T00:22:24.517Z,0
2022-12-25T00:23:24.200Z,0
2022-12-25T00:24:24.280Z,0
2022-12-25T00:25:24.532Z,0
2022-12-25T00:26:23.894Z,0
2022-12-25T00:27:23.877Z,0
2022-12-25T00:28:24.342Z,0
2022-12-25T00:29:24.064Z,0
2022-12-25T00:30:23.797Z,0
2022-12-25T00:31:24.098Z,0
2022-12-25T00:32:24.051Z,0
2022-12-25T00:33:24.038Z,0
2022-12-25T00:34:24.037Z,0
2022-12-25T00:35:24.299Z,0
2022-12-25T00:36:24.391Z,0
2022-12-25T00:37:23.935Z,0
2022-12-25T00:38:23.667Z,0
2022-12-25T00:39:24.160Z,0
2022-12-25T00:40:24.162Z,0
2022-12-25T00:41:23.881Z,0
2022-12-25T00:42:24.111Z,0
2022-12-25T00:43:23.878Z,0
2022-12-25T00:44:23.831Z,0
2022-12-25T00:45:24.135Z,0
2022-12-25T00:46:24.571Z,0
2022-12-25T00:47:24.517Z,0
2022-12-25T00:48:23.755Z,0
2022-12-25T00:49:23.774Z,0
2022-12-25T00:50:23.977Z,0
2022-12-25T00:51:23.772Z,0
2022-12-25T00:52:23.705Z,0
2022-12-25T00:53:23.927Z,0
2022-12-25T00:54:23.921Z,0
2022-12-25T00:55:23.665Z,0
2022-12-25T00:56:23.869Z,0
2022-12-25T00:57:23.590Z,0
2022-12-25T00:58:23.839Z,0
2022-12-25T00:59:23.328Z,0
2022-12-25T01:00:23.585Z,0
2022-12-25T01:01:24.267Z,0
2022-12-25T01:02:24.215Z,0
2022-12-25T01:03:23.824Z,0
2022-12-25T01:04:23.498Z,0
2022-12-25T01:05:23.449Z,0
2022-12-25T01:06:23.449Z,0
2022-12-25T01:07:23.756Z,0
2022-12-25T01:08:23.180Z,0
2022-12-25T01:09:23.410Z,0
2022-12-25T01:10:23.640Z,0
2022-12-25T01:11:23.614Z,0
2022-12-25T01:12:23.332Z,0
2022-12-25T01:13:23.578Z,0
2022-12-25T01:14:23.048Z,0
2022-12-25T01:15:23.037Z,0
2022-12-25T01:16:23.889Z,0
2022-12-25T01:17:23.245Z,0
2022-12-25T01:18:23.488Z,0
2022-12-25T01:19:23.215Z,0
2022-12-25T01:20:23.471Z,0
2022-12-25T01:21:23.316Z,0
2022-12-25T01:22:23.432Z,0
2022-12-25T01:23:23.519Z,0
2022-12-25T01:24:22.910Z,0
2022-12-25T01:25:23.386Z,0
2022-12-25T01:26:23.387Z,0
2022-12-25T01:27:23.095Z,0
2022-12-25T01:28:23.063Z,0
2022-12-25T01:29:22.813Z,0
2022-12-25T01:30:23.050Z,0
2022-12-25T01:31:23.638Z,0
2022-12-25T01:32:23.263Z,0
2022-12-25T01:33:22.994Z,0
2022-12-25T01:34:23.011Z,0
2022-12-25T01:35:22.949Z,0
2022-12-25T01:36:23.169Z,0
2022-12-25T01:37:55.036Z,0
2022-12-25T01:38:23.139Z,0
2022-12-25T01:39:22.957Z,0
2022-12-25T01:40:23.161Z,0
2022-12-25T01:41:23.117Z,0
2022-12-25T01:42:23.062Z,0
2022-12-25T01:43:26.015Z,0
2022-12-25T01:44:22.796Z,0
2022-12-25T01:45:22.558Z,0
2022-12-25T01:46:23.153Z,0
2022-12-25T01:47:22.482Z,0
2022-12-25T01:48:22.729Z,0
2022-12-25T01:49:22.963Z,0
2022-12-25T01:50:22.676Z,0
2022-12-25T01:51:22.666Z,0
2022-12-25T01:52:29.584Z,0
2022-12-25T01:53:22.386Z,0
2022-12-25T01:54:22.641Z,0
2022-12-25T01:55:22.679Z,0
2022-12-25T01:56:22.630Z,0
2022-12-25T01:57:22.299Z,0
2022-12-25T01:58:22.563Z,0
2022-12-25T01:59:22.545Z,0
2022-12-25T02:00:22.299Z,0
2022-12-25T02:01:23.167Z,0
2022-12-25T02:02:22.982Z,0
2022-12-25T02:03:22.860Z,0
2022-12-25T02:04:22.228Z,0
2022-12-25T02:05:22.492Z,0
2022-12-25T02:06:22.430Z,0
2022-12-25T02:07:22.726Z,0
2022-12-25T02:08:22.390Z,0
2022-12-25T02:09:22.635Z,0
2022-12-25T02:10:22.674Z,0
2022-12-25T02:11:22.667Z,0
2022-12-25T02:12:22.062Z,0
2022-12-25T02:13:22.315Z,0
2022-12-25T02:14:22.536Z,0
2022-12-25T02:15:23.085Z,0
2022-12-25T02:16:23.144Z,0
2022-12-25T02:17:23.325Z,0
2022-12-25T02:18:22.795Z,0
2022-12-25T02:19:22.767Z,0
2022-12-25T02:20:22.697Z,0
2022-12-25T02:21:22.438Z,0
2022-12-25T02:22:22.687Z,0
2022-12-25T02:23:22.413Z,0
2022-12-25T02:24:22.646Z,0
2022-12-25T02:25:22.627Z,0
2022-12-25T02:26:22.615Z,0
2022-12-25T02:27:22.917Z,0
2022-12-25T02:28:22.860Z,0
2022-12-25T02:29:22.572Z,0
2022-12-25T02:30:22.556Z,0
2022-12-25T02:31:22.968Z,0
2022-12-25T02:32:23.181Z,0
2022-12-25T02:33:22.547Z,0
2022-12-25T02:34:22.730Z,0
2022-12-25T02:35:22.435Z,0
2022-12-25T02:36:22.452Z,0
2022-12-25T02:37:22.465Z,0
2022-12-25T02:38:22.674Z,0
2022-12-25T02:39:22.676Z,0
2022-12-25T02:40:22.396Z,0
2022-12-25T02:41:22.353Z,0
2022-12-25T02:42:22.110Z,0
2022-12-25T02:43:22.429Z,0
2022-12-25T02:44:22.627Z,0
2022-12-25T02:45:22.548Z,0
2022-12-25T02:46:22.780Z,0
2022-12-25T02:47:22.251Z,0
2022-12-25T02:48:22.257Z,0
2022-12-25T02:49:22.486Z,0
2022-12-25T02:50:22.240Z,0
2022-12-25T02:51:22.219Z,0
2022-12-25T02:52:22.168Z,0
2022-12-25T02:53:22.419Z,0
2022-12-25T02:54:22.204Z,0
2022-12-25T02:55:22.171Z,0
2022-12-25T02:56:22.401Z,0
2022-12-25T02:57:22.122Z,0
2022-12-25T02:58:22.087Z,0
2022-12-25T02:59:22.455Z,0
2022-12-25T03:00:22.155Z,0
2022-12-25T03:01:23.074Z,0
2022-12-25T03:02:22.110Z,0
2022-12-25T03:03:22.272Z,0
2022-12-25T03:04:22.054Z,0
2022-12-25T03:05:21.743Z,0
2022-12-25T03:06:21.984Z,0
2022-12-25T03:07:21.712Z,0
2022-12-25T03:08:22.234Z,0
2022-12-25T03:09:21.938Z,0
2022-12-25T03:10:22.194Z,0
2022-12-25T03:11:21.658Z,0
2022-12-25T03:12:21.891Z,0
2022-12-25T03:13:21.631Z,0
2022-12-25T03:14:21.860Z,0
2022-12-25T03:15:22.171Z,0
2022-12-25T03:16:22.540Z,0
2022-12-25T03:17:21.848Z,0
2022-12-25T03:18:21.788Z,0
2022-12-25T03:19:21.278Z,0
2022-12-25T03:20:22.030Z,0
2022-12-25T03:21:21.221Z,0
2022-12-25T03:22:21.729Z,0
2022-12-25T03:23:21.732Z,0
2022-12-25T03:24:21.696Z,0
2022-12-25T03:25:21.704Z,0
2022-12-25T03:26:21.924Z,0
2022-12-25T03:27:21.426Z,0
2022-12-25T03:28:21.905Z,0
2022-12-25T03:29:22.985Z,0
2022-12-25T03:30:21.647Z,0
2022-12-25T03:31:22.580Z,0
2022-12-25T03:32:21.850Z,0
2022-12-25T03:49:52.730Z,0
2022-12-25T03:50:52.258Z,0
2022-12-25T03:51:52.522Z,0
2022-12-25T03:52:52.230Z,0
2022-12-25T03:53:52.479Z,0
2022-12-25T03:54:52.453Z,0
2022-12-25T03:55:52.451Z,0
2022-12-25T03:56:52.425Z,0
2022-12-25T03:57:52.410Z,0
2022-12-25T03:58:52.121Z,0
2022-12-25T03:59:52.106Z,0
2022-12-25T04:00:52.372Z,0
2022-12-25T04:01:52.835Z,0
2022-12-25T04:02:52.438Z,0
2022-12-25T04:03:52.036Z,0
2022-12-25T04:04:51.762Z,0
2022-12-25T04:05:52.366Z,0
2022-12-25T04:06:51.742Z,0
2022-12-25T04:07:52.221Z,0
2022-12-25T04:08:51.693Z,0
2022-12-25T04:09:51.939Z,0
2022-12-25T04:10:52.159Z,0
2022-12-25T04:11:54.942Z,0
2022-12-25T04:12:52.155Z,0
2022-12-25T04:13:51.592Z,0
2022-12-25T04:14:51.833Z,0
2022-12-25T04:15:52.431Z,0
2022-12-25T04:16:51.790Z,0
2022-12-25T04:17:52.035Z,0
2022-12-25T04:18:51.522Z,0
2022-12-25T04:19:52.071Z,0
2022-12-25T04:20:51.470Z,0
2022-12-25T04:21:52.064Z,0
2022-12-25T04:22:51.974Z,0
2022-12-25T04:23:51.927Z,0
2022-12-25T04:24:51.400Z,0
2022-12-25T04:25:51.938Z,0
2022-12-25T04:26:51.640Z,0
2022-12-25T04:27:51.615Z,0
2022-12-25T04:28:51.639Z,0
2022-12-25T04:29:51.873Z,0
2022-12-25T04:30:52.070Z,0
2022-12-25T04:31:51.305Z,0
2022-12-25T04:32:51.852Z,0
2022-12-25T04:33:51.785Z,0
2022-12-25T04:34:51.508Z,0
2022-12-25T04:35:51.499Z,0
2022-12-25T04:36:51.468Z,0
2022-12-25T04:37:51.812Z,0
2022-12-25T04:38:51.683Z,0
2022-12-25T04:39:51.675Z,0
2022-12-25T04:40:51.140Z,0
2022-12-25T04:41:51.384Z,0
2022-12-25T04:42:51.621Z,0
2022-12-25T04:43:51.657Z,0
2022-12-25T04:44:51.620Z,0
2022-12-25T04:45:51.055Z,0
2022-12-25T04:46:51.930Z,0
2022-12-25T04:47:51.067Z,0
2022-12-25T04:48:51.533Z,0
2022-12-25T04:49:51.502Z,0
2022-12-25T04:50:50.726Z,0
2022-12-25T04:51:51.487Z,0
2022-12-25T04:52:51.502Z,0
2022-12-25T04:53:51.573Z,0
2022-12-25T04:54:51.184Z,0
2022-12-25T04:55:50.915Z,0
2022-12-25T04:56:53.047Z,0
2022-12-25T05:02:30.490Z,0
2022-12-25T05:02:47.238Z,0
2022-12-25T05:03:46.389Z,0
2022-12-25T05:04:46.424Z,0
2022-12-25T05:05:45.937Z,0
2022-12-25T05:06:46.426Z,0
2022-12-25T05:07:46.427Z,0
2022-12-25T05:08:45.892Z,0
2022-12-25T05:09:46.515Z,0
2022-12-25T05:10:46.101Z,0
2022-12-25T05:11:45.681Z,0
2022-12-25T05:12:46.332Z,0
2022-12-25T05:13:46.676Z,0
2022-12-25T05:14:46.029Z,0
2022-12-25T05:15:46.234Z,0
2022-12-25T05:16:46.018Z,0
2022-12-25T05:17:46.243Z,0
2022-12-25T05:18:46.581Z,0
2022-12-25T05:19:45.980Z,0
2022-12-25T05:20:47.751Z,0
2022-12-25T05:21:45.921Z,0
2022-12-25T05:22:46.177Z,0
2022-12-25T05:23:45.644Z,0
2022-12-25T05:24:45.869Z,0
2022-12-25T05:25:46.209Z,0
2022-12-25T05:26:46.219Z,0
2022-12-25T05:27:53.958Z,0
2022-12-25T05:28:45.803Z,0
2022-12-25T05:29:46.050Z,0
2022-12-25T05:30:45.784Z,0
2022-12-25T05:31:45.735Z,0
2022-12-25T05:32:45.999Z,0
2022-12-25T05:33:45.738Z,0
2022-12-25T05:34:46.188Z,0
2022-12-25T05:35:45.717Z,0
2022-12-25T05:36:45.450Z,0
2022-12-25T05:37:45.663Z,0
2022-12-25T05:38:45.946Z,0
2022-12-25T05:39:45.368Z,0
2022-12-25T05:40:45.381Z,0
2022-12-25T05:41:45.974Z,0
2022-12-25T05:42:45.083Z,0
2022-12-25T05:43:45.858Z,0
2022-12-25T05:44:45.576Z,0
2022-12-25T05:45:45.556Z,0
2022-12-25T05:46:46.020Z,0
2022-12-25T05:47:45.498Z,0
2022-12-25T05:48:45.800Z,0
2022-12-25T05:49:45.275Z,0
2022-12-25T05:50:45.534Z,0
2022-12-25T05:51:45.725Z,0
2022-12-25T05:52:45.424Z,0
2022-12-25T05:53:45.421Z,0
2022-12-25T05:54:45.407Z,0
2022-12-25T05:55:45.630Z,0
2022-12-25T05:56:45.626Z,0
2022-12-25T05:57:45.737Z,0
2022-12-25T05:58:45.717Z,0
2022-12-25T05:59:45.615Z,0
2022-12-25T06:00:45.596Z,0
2022-12-25T06:01:46.003Z,0
2022-12-25T06:02:46.286Z,0
2022-12-25T06:03:45.841Z,0
2022-12-25T06:04:45.542Z,0
2022-12-25T06:05:45.254Z,0
2022-12-25T06:06:45.260Z,0
2022-12-25T06:07:45.228Z,0
2022-12-25T06:08:45.537Z,0
2022-12-25T06:09:44.968Z,0
2022-12-25T06:10:45.212Z,0
2022-12-25T06:11:45.172Z,0
2022-12-25T06:12:45.434Z,0
2022-12-25T06:13:45.839Z,0
2022-12-25T06:14:44.859Z,0
2022-12-25T06:15:45.349Z,0
2022-12-25T06:16:46.309Z,0
2022-12-25T06:17:45.075Z,0
2022-12-25T06:18:45.062Z,0
2022-12-25T06:19:45.101Z,0
2022-12-25T06:20:45.063Z,0
2022-12-25T06:21:45.019Z,0
2022-12-25T06:22:45.640Z,0
2022-12-25T06:23:45.643Z,0
2022-12-25T06:24:44.754Z,0
2022-12-25T06:25:45.260Z,0
2022-12-25T06:26:44.721Z,0
2022-12-25T06:27:44.905Z,0
2022-12-25T06:28:45.249Z,0
2022-12-25T06:29:45.229Z,0
2022-12-25T06:30:44.610Z,0
2022-12-25T06:31:45.259Z,0
2022-12-25T06:32:45.085Z,0
2022-12-25T06:33:44.863Z,4
2022-12-25T06:34:44.795Z,0
2022-12-25T06:35:44.531Z,0
2022-12-25T06:36:44.783Z,0
2022-12-25T06:37:45.007Z,4
2022-12-25T06:38:44.780Z,0
2022-12-25T06:39:44.472Z,4
2022-12-25T06:40:44.709Z,4
2022-12-25T06:41:44.984Z,4
2022-12-25T06:42:44.461Z,4
2022-12-25T06:43:44.701Z,8
2022-12-25T06:44:44.405Z,8
2022-12-25T06:45:45.196Z,8
2022-12-25T06:46:44.612Z,8
2022-12-25T06:47:44.589Z,12
2022-12-25T06:48:44.345Z,12
2022-12-25T06:49:44.801Z,12
2022-12-25T06:50:44.541Z,12
2022-12-25T06:51:44.771Z,16
2022-12-25T06:52:44.542Z,20
2022-12-25T06:53:47.403Z,20
2022-12-25T06:54:44.761Z,20
2022-12-25T06:55:44.471Z,24
2022-12-25T06:56:44.439Z,28
2022-12-25T06:57:44.696Z,32
2022-12-25T06:58:44.437Z,36
2022-12-25T06:59:46.415Z,40
2022-12-25T07:00:45.002Z,44
2022-12-25T07:01:45.536Z,48
2022-12-25T07:02:45.286Z,52
2022-12-25T07:03:44.333Z,60
2022-12-25T07:04:44.069Z,68
2022-12-25T07:05:44.308Z,72
2022-12-25T07:06:44.293Z,80
2022-12-25T07:07:44.051Z,84
2022-12-25T07:08:44.129Z,88
2022-12-25T07:09:44.493Z,92
2022-12-25T07:10:44.467Z,96
2022-12-25T07:11:44.218Z,104
2022-12-25T07:12:44.199Z,112
2022-12-25T07:13:44.206Z,116
2022-12-25T07:14:44.412Z,120
2022-12-25T07:15:43.889Z,128
2022-12-25T07:16:44.644Z,140
2022-12-25T07:17:44.473Z,148
2022-12-25T07:18:43.861Z,164
2022-12-25T07:19:51.664Z,188
2022-12-25T07:20:44.069Z,204
2022-12-25T07:21:44.072Z,224
2022-12-25T07:22:44.290Z,240
2022-12-25T07:23:44.044Z,256
2022-12-25T07:24:44.711Z,264
2022-12-25T07:25:44.967Z,284
2022-12-25T07:26:44.164Z,308
2022-12-25T07:27:44.402Z,324
2022-12-25T07:28:44.415Z,332
2022-12-25T07:29:44.113Z,328
2022-12-25T07:30:44.603Z,336
2022-12-25T07:31:44.889Z,352
2022-12-25T07:32:50.781Z,384
2022-12-25T07:33:44.647Z,408
2022-12-25T07:34:44.321Z,440
2022-12-25T07:35:44.262Z,476
2022-12-25T07:36:43.990Z,496
2022-12-25T07:37:43.991Z,524
2022-12-25T07:38:44.416Z,548
2022-12-25T07:39:44.251Z,568
2022-12-25T07:40:44.203Z,592
2022-12-25T07:41:44.189Z,628
2022-12-25T07:42:44.218Z,664
2022-12-25T07:43:44.161Z,684
2022-12-25T07:44:44.381Z,708
2022-12-25T07:45:44.588Z,768
2022-12-25T07:46:44.089Z,824
2022-12-25T07:47:44.328Z,876
2022-12-25T07:48:44.341Z,900
2022-12-25T07:49:44.370Z,920
2022-12-25T07:50:43.803Z,952
2022-12-25T07:51:44.017Z,1000
2022-12-25T07:52:50.599Z,1016
2022-12-25T07:53:43.743Z,1028
2022-12-25T07:54:44.419Z,1020
2022-12-25T07:55:43.962Z,996
2022-12-25T07:56:44.208Z,996
2022-12-25T07:57:43.661Z,1008
2022-12-25T07:58:43.932Z,1028
2022-12-25T07:59:43.637Z,1048
2022-12-25T08:00:43.829Z,1028
2022-12-25T08:01:44.904Z,1036
2022-12-25T08:02:45.446Z,1040
2022-12-25T08:03:45.165Z,1024
2022-12-25T08:04:44.098Z,976
2022-12-25T08:05:44.138Z,956
2022-12-25T08:06:44.066Z,960
2022-12-25T08:07:44.039Z,992
2022-12-25T08:08:43.245Z,1028
2022-12-25T08:09:43.741Z,1056
2022-12-25T08:10:43.463Z,1072
2022-12-25T08:11:43.770Z,1068
2022-12-25T08:12:43.715Z,1052
2022-12-25T08:13:43.463Z,1044
2022-12-25T08:14:43.961Z,1064
2022-12-25T08:15:43.911Z,1144
2022-12-25T08:16:43.956Z,1252
2022-12-25T08:17:43.884Z,1328
2022-12-25T08:18:43.678Z,1360
2022-12-25T08:19:43.836Z,1404
2022-12-25T08:20:43.372Z,1420
2022-12-25T08:21:43.883Z,1468
2022-12-25T08:22:43.575Z,1496
2022-12-25T08:23:43.585Z,1536
2022-12-25T08:24:43.556Z,1528
2022-12-25T08:25:43.752Z,1520
2022-12-25T08:26:43.258Z,1512
2022-12-25T08:27:43.468Z,1496
2022-12-25T08:28:43.712Z,1496
2022-12-25T08:29:43.443Z,1496
2022-12-25T08:30:44.032Z,1484
2022-12-25T08:31:51.773Z,1440
2022-12-25T08:32:43.682Z,1424
2022-12-25T08:33:43.733Z,1452
2022-12-25T08:34:43.659Z,1436
2022-12-25T08:35:43.661Z,1468
2022-12-25T08:36:43.124Z,1560
2022-12-25T08:37:43.650Z,1592
2022-12-25T08:38:43.619Z,1576
2022-12-25T08:39:43.039Z,1544
2022-12-25T08:40:43.564Z,1512
2022-12-25T08:41:43.019Z,1512
2022-12-25T08:42:44.439Z,1520
2022-12-25T08:43:43.477Z,1500
2022-12-25T08:44:43.214Z,1464
2022-12-25T08:45:43.661Z,1392
2022-12-25T08:46:43.454Z,1392
2022-12-25T08:47:43.432Z,1388
2022-12-25T08:48:43.454Z,1324
2022-12-25T08:49:43.541Z,1316
2022-12-25T08:50:43.182Z,1336
2022-12-25T08:51:43.363Z,1344
2022-12-25T08:52:43.114Z,1356
2022-12-25T08:53:43.403Z,1348
2022-12-25T08:54:43.064Z,1348
2022-12-25T08:55:43.316Z,1356
2022-12-25T08:56:43.039Z,1364
2022-12-25T08:57:43.284Z,1392
2022-12-25T08:58:43.309Z,1432
2022-12-25T08:59:43.251Z,1428
2022-12-25T09:00:42.996Z,1436
2022-12-25T09:01:43.581Z,1432
2022-12-25T09:02:44.071Z,1464
2022-12-25T09:03:43.826Z,1520
2022-12-25T09:04:43.208Z,1572
2022-12-25T09:05:43.174Z,1668
2022-12-25T09:06:42.678Z,1784
2022-12-25T09:07:43.120Z,1896
2022-12-25T09:08:52.071Z,1984
2022-12-25T09:09:43.279Z,2032
2022-12-25T09:10:42.555Z,2172
2022-12-25T09:11:43.259Z,2360
2022-12-25T09:12:42.991Z,2520
2022-12-25T09:13:42.969Z,2648
2022-12-25T09:14:42.958Z,2636
2022-12-25T09:15:43.032Z,2608
2022-12-25T09:16:42.930Z,2416
2022-12-25T09:17:42.924Z,2188
2022-12-25T09:18:42.884Z,2016
2022-12-25T09:19:43.164Z,1980
2022-12-25T09:20:43.109Z,1960
2022-12-25T09:21:42.346Z,1952
2022-12-25T09:22:42.853Z,1912
2022-12-25T09:23:42.870Z,1740
2022-12-25T09:24:42.885Z,1596
2022-12-25T09:25:43.079Z,1524
2022-12-25T09:26:43.077Z,1484
2022-12-25T09:27:43.023Z,1456
2022-12-25T09:28:52.178Z,1448
2022-12-25T09:29:42.739Z,1440
2022-12-25T09:30:43.150Z,1420
2022-12-25T09:31:42.705Z,1388
2022-12-25T09:32:42.711Z,1368
2022-12-25T09:33:43.428Z,1364
2022-12-25T09:34:43.684Z,1416
2022-12-25T09:35:43.681Z,1444
2022-12-25T09:36:44.305Z,1480
2022-12-25T09:37:44.470Z,1460
2022-12-25T09:38:43.623Z,1452
2022-12-25T09:39:51.121Z,1444
2022-12-25T09:40:43.613Z,1452
2022-12-25T09:41:43.632Z,1468
2022-12-25T09:42:43.298Z,1464
2022-12-25T09:43:43.540Z,1476
2022-12-25T09:44:43.287Z,1468
2022-12-25T09:45:43.528Z,1460
2022-12-25T09:46:44.661Z,1472
2022-12-25T09:47:43.229Z,1464
2022-12-25T09:48:43.229Z,1488
2022-12-25T09:49:42.670Z,1512
2022-12-25T09:50:43.461Z,1532
2022-12-25T09:51:43.432Z,1564
2022-12-25T09:52:43.417Z,1508
2022-12-25T09:53:43.422Z,1480
2022-12-25T09:54:42.873Z,1464
2022-12-25T09:55:43.195Z,1476
2022-12-25T09:56:42.842Z,1468
2022-12-25T09:57:43.117Z,1452
2022-12-25T09:58:43.317Z,1456
2022-12-25T09:59:43.295Z,1452
2022-12-25T10:00:43.353Z,1452
2022-12-25T10:01:43.885Z,1460
2022-12-25T10:02:44.235Z,1464
2022-12-25T10:03:43.054Z,1468
2022-12-25T10:04:47.938Z,1476
2022-12-25T10:05:42.457Z,1476
2022-12-25T10:06:42.711Z,1484
2022-12-25T10:07:42.431Z,1492
2022-12-25T10:08:43.193Z,1492
2022-12-25T10:09:43.159Z,1480
2022-12-25T10:10:43.138Z,1536
2022-12-25T10:11:43.170Z,1604
2022-12-25T10:12:42.852Z,1640
2022-12-25T10:13:42.902Z,1636
2022-12-25T10:14:42.843Z,1648
2022-12-25T10:15:50.916Z,1664
2022-12-25T10:16:43.032Z,1684
2022-12-25T10:17:43.028Z,1664
2022-12-25T10:18:42.518Z,1680
2022-12-25T10:19:42.747Z,1784
2022-12-25T10:20:43.563Z,1864
2022-12-25T10:21:42.731Z,1912
2022-12-25T10:22:43.026Z,2112
2022-12-25T10:23:43.077Z,2256
2022-12-25T10:24:42.936Z,2540
2022-12-25T10:25:42.687Z,2768
2022-12-25T10:26:42.642Z,2920
2022-12-25T10:27:42.708Z,3016
2022-12-25T10:28:42.885Z,3168
2022-12-25T10:29:42.931Z,3336
2022-12-25T10:30:42.867Z,3284
2022-12-25T10:31:42.846Z,3228
2022-12-25T10:32:42.555Z,3136
2022-12-25T10:33:42.555Z,3096
2022-12-25T10:34:42.774Z,3056
2022-12-25T10:35:42.546Z,2736
2022-12-25T10:36:42.561Z,2616
2022-12-25T10:37:42.796Z,2684
2022-12-25T10:38:42.511Z,2936
2022-12-25T10:39:51.218Z,2980
2022-12-25T10:40:42.484Z,2976
2022-12-25T10:41:42.435Z,3028
2022-12-25T10:42:42.410Z,3036
2022-12-25T10:43:42.506Z,3108
2022-12-25T10:44:42.654Z,2988
2022-12-25T10:45:42.677Z,2688
2022-12-25T10:46:42.448Z,2464
2022-12-25T10:47:44.530Z,2332
2022-12-25T10:48:42.619Z,2196
2022-12-25T10:49:42.381Z,2156
2022-12-25T10:50:42.339Z,2212
2022-12-25T10:51:42.327Z,2400
2022-12-25T10:52:42.544Z,2620
2022-12-25T10:53:42.055Z,2840
2022-12-25T10:54:42.252Z,2996
2022-12-25T10:55:42.238Z,3140
2022-12-25T10:56:41.971Z,3276
2022-12-25T10:57:42.213Z,3228
2022-12-25T10:58:41.957Z,3028
2022-12-25T10:59:42.241Z,2888
2022-12-25T11:00:41.698Z,2828
2022-12-25T11:01:42.786Z,2788
2022-12-25T11:02:43.622Z,2864
2022-12-25T11:03:41.965Z,3032
2022-12-25T11:04:41.867Z,3112
2022-12-25T11:05:42.120Z,3180
2022-12-25T11:06:42.082Z,3176
2022-12-25T11:07:42.065Z,3112
2022-12-25T11:08:41.824Z,3112
2022-12-25T11:09:42.330Z,3592
2022-12-25T11:10:42.052Z,4084
2022-12-25T11:11:42.291Z,4688
2022-12-25T11:12:42.300Z,5100
2022-12-25T11:13:42.044Z,5032
2022-12-25T11:14:41.754Z,5016
2022-12-25T11:15:42.459Z,5048
2022-12-25T11:16:42.800Z,4840
2022-12-25T11:17:42.331Z,4760
2022-12-25T11:18:41.937Z,4768
2022-12-25T11:19:42.233Z,4576
2022-12-25T11:20:49.600Z,4516
2022-12-25T11:21:41.893Z,4488
2022-12-25T11:22:41.632Z,4476
2022-12-25T11:23:41.606Z,4616
2022-12-25T11:24:41.880Z,4344
2022-12-25T11:25:42.146Z,4016
2022-12-25T11:26:42.100Z,4112
2022-12-25T11:27:42.057Z,3992
2022-12-25T11:28:42.069Z,3816
2022-12-25T11:29:42.052Z,3764
2022-12-25T11:30:41.765Z,3892
2022-12-25T11:31:42.205Z,3872
2022-12-25T11:32:41.765Z,3744
2022-12-25T11:33:42.050Z,3656
2022-12-25T11:34:41.720Z,4016
2022-12-25T11:35:41.189Z,4400
2022-12-25T11:36:41.711Z,4576
2022-12-25T11:37:41.968Z,4520
2022-12-25T11:38:41.930Z,4484
2022-12-25T11:39:41.645Z,4464
2022-12-25T11:40:41.803Z,4184
2022-12-25T11:41:41.881Z,3984
2022-12-25T11:42:42.291Z,3772
2022-12-25T11:43:41.595Z,3476
2022-12-25T11:44:41.879Z,3252
2022-12-25T11:45:41.871Z,2860
2022-12-25T11:46:41.846Z,2580
2022-12-25T11:47:41.596Z,2324
2022-12-25T11:48:41.543Z,2064
2022-12-25T11:49:44.724Z,1792
2022-12-25T11:50:41.275Z,1628
2022-12-25T11:51:41.499Z,1556
2022-12-25T11:52:41.488Z,1468
2022-12-25T11:53:41.732Z,1432
2022-12-25T11:54:42.148Z,1424
2022-12-25T11:55:41.451Z,1308
2022-12-25T11:56:41.177Z,1248
2022-12-25T11:57:41.423Z,1208
2022-12-25T11:58:41.467Z,1144
2022-12-25T11:59:41.394Z,1112
2022-12-25T12:00:41.381Z,1096
2022-12-25T12:01:42.220Z,1104
2022-12-25T12:02:42.121Z,1124
2022-12-25T12:03:41.890Z,1152
2022-12-25T12:04:49.269Z,1164
2022-12-25T12:05:41.185Z,1180
2022-12-25T12:06:41.040Z,1284
2022-12-25T12:07:41.032Z,1156
2022-12-25T12:08:41.269Z,1156
2022-12-25T12:09:41.266Z,1168
2022-12-25T12:10:41.253Z,1204
2022-12-25T12:11:41.254Z,1228
2022-12-25T12:12:49.114Z,1352
2022-12-25T12:13:41.453Z,1528
2022-12-25T12:14:41.198Z,1608
2022-12-25T12:15:41.171Z,1864
2022-12-25T12:16:41.886Z,2148
2022-12-25T12:17:41.428Z,2416
2022-12-25T12:18:45.229Z,2676
2022-12-25T12:19:41.501Z,2852
2022-12-25T12:20:41.376Z,2964
2022-12-25T12:21:41.392Z,2916
2022-12-25T12:22:41.337Z,2836
2022-12-25T12:23:40.815Z,2724
2022-12-25T12:24:41.329Z,2632
2022-12-25T12:25:41.298Z,2612
2022-12-25T12:26:41.288Z,2744
2022-12-25T12:27:41.036Z,2808
2022-12-25T12:28:40.739Z,2876
2022-12-25T12:29:41.257Z,2776
2022-12-25T12:30:40.982Z,2804
2022-12-25T12:31:41.044Z,2908
2022-12-25T12:32:40.735Z,3008
2022-12-25T12:33:40.695Z,3056
2022-12-25T12:34:40.931Z,3124
2022-12-25T12:35:41.318Z,3128
2022-12-25T12:36:43.802Z,3084
2022-12-25T12:37:40.941Z,3108
2022-12-25T12:38:40.610Z,3180
2022-12-25T12:39:40.897Z,3088
2022-12-25T12:40:40.879Z,3008
2022-12-25T12:41:41.065Z,3028
2022-12-25T12:42:41.087Z,3168
2022-12-25T12:43:40.797Z,3236
2022-12-25T12:44:40.804Z,3104
2022-12-25T12:45:41.406Z,2628
2022-12-25T12:46:41.415Z,2396
2022-12-25T12:47:40.271Z,2160
2022-12-25T12:48:40.497Z,1852
2022-12-25T12:49:40.753Z,1884
2022-12-25T12:50:40.744Z,1872
2022-12-25T12:51:40.780Z,1976
2022-12-25T12:52:40.708Z,2008
2022-12-25T12:53:40.453Z,1984
2022-12-25T12:54:40.660Z,1924
2022-12-25T12:55:40.434Z,1860
2022-12-25T12:56:40.887Z,1876
2022-12-25T12:57:40.872Z,2008
2022-12-25T12:58:41.020Z,2136
2022-12-25T12:59:40.602Z,2156
2022-12-25T13:00:40.393Z,2120
2022-12-25T13:01:41.331Z,2088
2022-12-25T13:02:41.554Z,2124
2022-12-25T13:03:40.657Z,2120
2022-12-25T13:04:40.782Z,2100
2022-12-25T13:05:41.986Z,2076
2022-12-25T13:06:40.527Z,2020
2022-12-25T13:07:40.527Z,1936
2022-12-25T13:08:40.540Z,1824
2022-12-25T13:09:40.740Z,1752
2022-12-25T13:10:40.224Z,1672
2022-12-25T13:11:40.701Z,1528
2022-12-25T13:12:40.447Z,1408
2022-12-25T13:13:40.396Z,1332
2022-12-25T13:14:40.637Z,1244
2022-12-25T13:15:40.374Z,1164
2022-12-25T13:16:40.968Z,1104
2022-12-25T13:17:40.103Z,1060
2022-12-25T13:18:40.581Z,1008
2022-12-25T13:19:40.369Z,964
2022-12-25T13:20:40.554Z,940
2022-12-25T13:21:40.544Z,936
2022-12-25T13:22:40.281Z,944
2022-12-25T13:23:40.331Z,964
2022-12-25T13:24:40.278Z,984
2022-12-25T13:25:40.517Z,988
2022-12-25T13:26:39.999Z,976
2022-12-25T13:27:40.567Z,996
2022-12-25T13:28:40.478Z,1064
2022-12-25T13:29:39.959Z,1112
2022-12-25T13:30:40.202Z,1188
2022-12-25T13:31:40.741Z,1328
2022-12-25T13:32:39.734Z,1428
2022-12-25T13:33:40.595Z,1392
2022-12-25T13:34:40.402Z,1304
2022-12-25T13:35:40.087Z,1272
2022-12-25T13:36:40.463Z,1308
2022-12-25T13:37:40.365Z,1340
2022-12-25T13:38:40.093Z,1340
2022-12-25T13:39:40.375Z,1296
2022-12-25T13:40:40.059Z,1220
2022-12-25T13:41:39.859Z,1144
2022-12-25T13:42:40.271Z,1092
2022-12-25T13:43:39.999Z,1060
2022-12-25T13:44:40.242Z,1064
2022-12-25T13:45:40.175Z,1096
2022-12-25T13:46:40.212Z,1056
2022-12-25T13:47:40.224Z,944
2022-12-25T13:48:40.197Z,824
2022-12-25T13:49:40.167Z,740
2022-12-25T13:50:40.174Z,688
2022-12-25T13:51:39.642Z,684
2022-12-25T13:52:40.154Z,684
2022-12-25T13:53:40.113Z,712
2022-12-25T13:54:40.085Z,768
2022-12-25T13:55:40.140Z,832
2022-12-25T13:56:39.832Z,892
2022-12-25T13:57:39.846Z,956
2022-12-25T13:58:39.317Z,1004
2022-12-25T13:59:39.787Z,1024
2022-12-25T14:00:39.786Z,1032
2022-12-25T14:01:40.683Z,1028
2022-12-25T14:02:40.810Z,988
2022-12-25T14:03:40.135Z,928
2022-12-25T14:04:39.955Z,876
2022-12-25T14:05:48.671Z,824
2022-12-25T14:06:39.685Z,800
2022-12-25T14:07:39.931Z,764
2022-12-25T14:08:39.955Z,736
2022-12-25T14:09:39.631Z,740
2022-12-25T14:10:39.885Z,732
2022-12-25T14:11:39.685Z,716
2022-12-25T14:12:39.867Z,696
2022-12-25T14:13:39.872Z,684
2022-12-25T14:14:39.563Z,680
2022-12-25T14:15:39.306Z,668
2022-12-25T14:16:40.646Z,656
2022-12-25T14:17:40.121Z,644
2022-12-25T14:18:40.133Z,624
2022-12-25T14:19:40.424Z,624
2022-12-25T14:20:39.846Z,640
2022-12-25T14:21:40.395Z,652